createdAt,value
2023-04-25T00:00:32.865Z,97560.34
2023-04-25T00:03:00.562Z,97573.81
2023-04-25T00:05:28.553Z,97565.44
2023-04-25T00:07:55.559Z,97574.38
2023-04-25T00:10:23.074Z,97574.69
2023-04-25T00:12:50.864Z,97560.13
2023-04-25T00:15:18.532Z,97559.09
2023-04-25T00:17:46.717Z,97572.69
2023-04-25T00:20:14.306Z,97565.13
2023-04-25T00:22:41.668Z,97573.56
2023-04-25T00:25:08.938Z,97591.19
2023-04-25T00:27:36.322Z,97578.22
2023-04-25T00:30:04.208Z,97582.28
2023-04-25T00:32:31.318Z,97583.13
2023-04-25T00:34:58.822Z,97595.94
2023-04-25T00:37:25.964Z,97582.75
2023-04-25T00:39:54.471Z,97592.06
2023-04-25T00:42:21.908Z,97587.78
2023-04-25T00:44:48.918Z,97590.28
2023-04-25T00:47:16.305Z,97589.78
2023-04-25T00:49:44.192Z,97592.56
2023-04-25T00:52:12.876Z,97589.59
2023-04-25T00:54:40.035Z,97587.75
2023-04-25T00:57:07.379Z,97592.13
2023-04-25T00:59:34.799Z,97587.00
2023-04-25T01:02:02.387Z,97589.19
2023-04-25T01:04:29.814Z,97592.47
2023-04-25T01:06:57.657Z,97585.44
2023-04-25T01:09:25.471Z,97578.34
2023-04-25T01:11:52.770Z,97588.94
2023-04-25T01:14:20.312Z,97571.28
2023-04-25T01:16:47.404Z,97569.41
2023-04-25T01:19:14.902Z,97565.28
2023-04-25T01:21:42.169Z,97570.44
2023-04-25T01:24:09.490Z,97578.34
2023-04-25T01:26:37.498Z,97584.59
2023-04-25T01:29:05.793Z,97591.41
2023-04-25T01:31:33.581Z,97577.84
2023-04-25T01:34:01.581Z,97577.00
2023-04-25T01:36:29.703Z,97587.59
2023-04-25T01:38:56.838Z,97589.22
2023-04-25T01:41:24.309Z,97578.88
2023-04-25T01:43:52.035Z,97578.63
2023-04-25T01:46:19.681Z,97580.22
2023-04-25T01:48:47.224Z,97608.09
2023-04-25T01:51:14.692Z,97596.69
2023-04-25T01:53:42.222Z,97609.41
2023-04-25T01:56:09.907Z,97600.69
2023-04-25T01:58:37.380Z,97609.63
2023-04-25T02:01:26.327Z,97605.03
2023-04-25T02:04:12.210Z,97617.00
2023-04-25T02:06:41.152Z,97617.03
2023-04-25T02:09:08.800Z,97604.06
2023-04-25T02:11:40.678Z,97612.50
2023-04-25T02:14:40.204Z,97614.16
2023-04-25T02:17:17.431Z,97614.72
2023-04-25T02:19:46.255Z,97634.56
2023-04-25T02:22:13.617Z,97632.91
2023-04-25T02:24:41.096Z,97631.28
2023-04-25T02:27:08.821Z,97652.75
2023-04-25T02:29:36.534Z,97641.88
2023-04-25T02:32:04.394Z,97648.13
2023-04-25T02:34:32.031Z,97657.09
2023-04-25T02:37:01.458Z,97659.00
2023-04-25T02:39:28.835Z,97660.88
2023-04-25T02:41:56.593Z,97672.88
2023-04-25T02:44:24.187Z,97683.97
2023-04-25T02:46:51.675Z,97679.09
2023-04-25T02:49:19.003Z,97685.06
2023-04-25T02:51:46.458Z,97692.09
2023-04-25T02:54:14.138Z,97694.53
2023-04-25T02:56:44.613Z,97693.47
2023-04-25T02:59:17.425Z,97706.47
2023-04-25T03:01:44.876Z,97708.63
2023-04-25T03:04:12.097Z,97715.34
2023-04-25T03:06:39.235Z,97719.41
2023-04-25T03:09:06.753Z,97723.97
2023-04-25T03:11:33.905Z,97733.66
2023-04-25T03:14:02.160Z,97758.13
2023-04-25T03:16:29.304Z,97754.97
2023-04-25T03:18:56.677Z,97759.66
2023-04-25T03:21:24.212Z,97752.34
2023-04-25T03:23:52.276Z,97766.19
2023-04-25T03:26:19.867Z,97768.31
2023-04-25T03:28:47.015Z,97764.66
2023-04-25T03:31:14.596Z,97762.38
2023-04-25T03:33:42.202Z,97778.75
2023-04-25T03:36:10.212Z,97779.19
2023-04-25T03:38:37.725Z,97787.50
2023-04-25T03:41:06.865Z,97790.38
2023-04-25T03:43:43.533Z,97780.97
2023-04-25T03:46:13.438Z,97788.22
2023-04-25T03:48:41.904Z,97794.00
2023-04-25T03:51:12.293Z,97803.63
2023-04-25T03:53:43.003Z,97800.34
2023-04-25T03:56:16.097Z,97805.97
2023-04-25T03:58:45.996Z,97809.69
2023-04-25T04:01:15.203Z,97817.13
2023-04-25T04:03:42.986Z,97828.28
2023-04-25T04:06:11.783Z,97816.81
2023-04-25T04:08:44.556Z,97825.00
2023-04-25T04:11:12.611Z,97829.09
2023-04-25T04:13:39.643Z,97827.59
2023-04-25T04:16:08.049Z,97832.72
2023-04-25T04:18:36.773Z,97832.97
2023-04-25T04:21:04.085Z,97829.44
2023-04-25T04:23:34.355Z,97835.25
2023-04-25T04:26:02.143Z,97836.38
2023-04-25T04:28:49.329Z,97854.59
2023-04-25T04:31:39.771Z,97861.75
2023-04-25T04:34:06.986Z,97863.72
2023-04-25T04:36:35.685Z,97879.34
2023-04-25T04:39:04.255Z,97874.72
2023-04-25T04:42:02.499Z,97885.06
2023-04-25T04:44:39.648Z,97889.13
2023-04-25T04:47:24.715Z,97897.19
2023-04-25T04:50:12.122Z,97912.28
2023-04-25T04:53:14.292Z,97917.88
2023-04-25T04:56:01.898Z,97963.84
2023-04-25T04:58:53.258Z,97980.44
2023-04-25T05:01:40.684Z,97997.75
2023-04-25T05:04:44.790Z,98009.72
2023-04-25T05:07:35.436Z,98000.28
2023-04-25T05:10:10.213Z,98017.22
2023-04-25T05:12:58.334Z,98029.31
2023-04-25T05:15:31.647Z,98040.75
2023-04-25T05:18:18.940Z,98035.88
2023-04-25T05:20:54.443Z,98060.41
2023-04-25T05:23:38.859Z,98062.72
2023-04-25T05:26:44.609Z,98060.50
2023-04-25T05:29:34.298Z,98078.91
2023-04-25T05:32:22.340Z,98068.09
2023-04-25T05:34:50.800Z,98080.47
2023-04-25T05:37:24.310Z,98094.19
2023-04-25T05:39:58.035Z,98106.25
2023-04-25T05:42:33.655Z,98099.69
2023-04-25T05:45:19.431Z,98122.25
2023-04-25T05:47:55.330Z,98110.59
2023-04-25T05:50:42.648Z,98118.34
2023-04-25T05:53:34.379Z,98112.59
2023-04-25T05:56:03.777Z,98134.72
2023-04-25T05:58:31.497Z,98134.13
2023-04-25T06:01:00.486Z,98134.53
2023-04-25T06:03:28.699Z,98122.34
2023-04-25T06:05:58.449Z,98127.03
2023-04-25T06:08:26.643Z,98139.81
2023-04-25T06:10:53.780Z,98144.66
2023-04-25T06:13:20.876Z,98179.69
2023-04-25T06:15:48.427Z,98166.25
2023-04-25T06:18:15.667Z,98182.94
2023-04-25T06:20:43.203Z,98176.03
2023-04-25T06:23:11.072Z,98171.63
2023-04-25T06:25:47.343Z,98180.78
2023-04-25T06:28:15.525Z,98182.47
2023-04-25T06:30:44.091Z,98184.63
2023-04-25T06:33:15.477Z,98188.34
2023-04-25T06:35:42.810Z,98192.34
2023-04-25T06:38:13.080Z,98186.50
2023-04-25T06:40:43.998Z,98198.91
2023-04-25T06:43:11.457Z,98189.50
2023-04-25T06:45:57.000Z,98204.25
2023-04-25T06:48:28.234Z,98207.34
2023-04-25T06:50:57.571Z,98216.88
2023-04-25T06:53:25.505Z,98228.94
2023-04-25T06:55:58.972Z,98243.97
2023-04-25T06:58:31.497Z,98248.06
2023-04-25T07:01:34.043Z,98262.09
2023-04-25T07:04:05.847Z,98273.19
2023-04-25T07:06:35.147Z,98256.56
2023-04-25T07:09:02.695Z,98277.69
2023-04-25T07:11:30.029Z,98292.88
2023-04-25T07:13:57.411Z,98304.66
2023-04-25T07:16:24.406Z,98308.59
2023-04-25T07:18:52.852Z,98317.28
2023-04-25T07:21:20.462Z,98334.72
2023-04-25T07:23:50.256Z,98352.13
2023-04-25T07:26:22.289Z,98363.00
2023-04-25T07:29:09.667Z,98371.28
2023-04-25T07:31:36.978Z,98379.78
2023-04-25T07:34:04.258Z,98385.06
2023-04-25T07:36:31.776Z,98408.56
2023-04-25T07:38:59.244Z,98427.88
2023-04-25T07:41:26.611Z,98448.81
2023-04-25T07:43:53.721Z,98434.84
2023-04-25T07:46:21.888Z,98444.84
2023-04-25T07:48:49.409Z,98455.00
2023-04-25T07:51:17.121Z,98484.41
2023-04-25T07:53:44.306Z,98480.94
2023-04-25T07:56:14.495Z,98491.22
2023-04-25T07:58:44.242Z,98495.69
2023-04-25T08:01:14.476Z,98505.53
2023-04-25T08:03:50.755Z,98506.53
2023-04-25T08:06:44.354Z,98517.41
2023-04-25T08:09:19.346Z,98526.56
2023-04-25T08:11:47.606Z,98518.47
2023-04-25T08:14:17.459Z,98528.69
2023-04-25T08:16:45.988Z,98536.25
2023-04-25T08:19:13.995Z,98539.25
2023-04-25T08:21:41.170Z,98538.69
2023-04-25T08:24:12.562Z,98564.34
2023-04-25T08:26:42.288Z,98558.97
2023-04-25T08:29:12.651Z,98564.34
2023-04-25T08:31:41.919Z,98567.66
2023-04-25T08:34:10.319Z,98574.25
2023-04-25T08:36:51.408Z,98589.59
2023-04-25T08:39:38.244Z,98593.91
2023-04-25T08:42:23.849Z,98593.69
2023-04-25T08:44:51.311Z,98607.38
2023-04-25T08:47:20.344Z,98620.00
2023-04-25T08:49:52.479Z,98631.56
2023-04-25T08:52:22.757Z,98625.53
2023-04-25T08:54:50.224Z,98632.41
2023-04-25T08:57:18.690Z,98630.78
2023-04-25T08:59:47.828Z,98622.50
2023-04-25T09:02:17.845Z,98651.22
2023-04-25T09:04:48.528Z,98650.59
2023-04-25T09:07:19.226Z,98651.56
2023-04-25T09:09:46.988Z,98660.25
2023-04-25T09:12:20.220Z,98686.81
2023-04-25T09:15:10.562Z,98715.06
2023-04-25T09:18:06.721Z,98704.88
2023-04-25T09:21:00.926Z,98691.94
2023-04-25T09:23:32.920Z,98711.47
2023-04-25T09:26:00.500Z,98717.25
2023-04-25T09:28:30.082Z,98733.19
2023-04-25T09:31:01.794Z,98731.69
2023-04-25T09:33:47.008Z,98736.84
2023-04-25T09:36:14.840Z,98737.84
2023-04-25T09:39:17.159Z,98763.31
2023-04-25T09:41:56.111Z,98765.19
2023-04-25T09:44:27.821Z,98764.78
2023-04-25T09:46:56.411Z,98773.06
2023-04-25T09:49:28.510Z,98782.16
2023-04-25T09:52:05.756Z,98776.78
2023-04-25T09:54:42.354Z,98789.59
2023-04-25T09:57:24.358Z,98799.91
2023-04-25T09:59:55.057Z,98808.63
2023-04-25T10:02:24.281Z,98815.03
2023-04-25T10:04:55.709Z,98840.56
2023-04-25T10:07:31.725Z,98844.97
2023-04-25T10:10:04.116Z,98847.88
2023-04-25T10:12:33.709Z,98859.47
2023-04-25T10:15:01.641Z,98855.44
2023-04-25T10:17:29.413Z,98863.06
2023-04-25T10:19:57.596Z,98881.56
2023-04-25T10:22:31.535Z,98881.25
2023-04-25T10:24:58.936Z,98894.00
2023-04-25T10:27:28.561Z,98902.78
2023-04-25T10:30:07.335Z,98908.22
2023-04-25T10:32:34.864Z,98909.34
2023-04-25T10:35:12.795Z,98926.16
2023-04-25T10:37:57.128Z,98916.94
2023-04-25T10:40:24.283Z,98921.63
2023-04-25T10:42:54.881Z,98938.47
2023-04-25T10:45:22.252Z,98946.66
2023-04-25T10:47:49.860Z,98942.66
2023-04-25T10:50:17.589Z,98944.66
2023-04-25T10:52:47.861Z,98953.56
2023-04-25T10:55:15.293Z,98962.91
2023-04-25T10:57:44.780Z,98967.00
2023-04-25T11:00:13.975Z,98974.19
2023-04-25T11:02:49.468Z,98973.53
2023-04-25T11:05:24.582Z,98979.31
2023-04-25T11:08:03.890Z,98975.97
2023-04-25T11:10:38.228Z,98980.19
2023-04-25T11:13:05.802Z,98977.44
2023-04-25T11:15:33.516Z,98975.47
2023-04-25T11:18:00.983Z,98983.66
2023-04-25T11:20:29.563Z,98987.19
2023-04-25T11:23:00.010Z,98980.59
2023-04-25T11:25:27.817Z,98992.34
2023-04-25T11:27:59.062Z,98996.91
2023-04-25T11:30:27.009Z,98980.84
2023-04-25T11:32:54.281Z,98992.41
2023-04-25T11:35:24.319Z,99001.75
2023-04-25T11:37:52.814Z,98996.56
2023-04-25T11:40:20.276Z,99003.53
2023-04-25T11:42:47.923Z,99011.59
2023-04-25T11:45:15.368Z,99000.47
2023-04-25T11:47:42.775Z,99007.03
2023-04-25T11:50:10.722Z,99019.72
2023-04-25T11:52:39.085Z,99004.59
2023-04-25T11:55:09.115Z,99004.81
2023-04-25T11:57:41.512Z,99015.88
2023-04-25T12:00:18.584Z,99009.72
2023-04-25T12:02:48.200Z,99028.13
2023-04-25T12:07:49.259Z,99035.19
2023-04-25T12:10:17.632Z,99033.59
2023-04-25T12:12:46.087Z,99038.09
2023-04-25T12:15:26.634Z,99040.50
2023-04-25T12:17:55.185Z,99035.56
2023-04-25T12:20:25.212Z,99045.72
2023-04-25T12:22:52.843Z,99036.19
2023-04-25T12:25:35.826Z,99051.25
2023-04-25T12:28:23.742Z,99054.16
2023-04-25T12:31:05.467Z,99058.91
2023-04-25T12:33:43.459Z,99058.34
2023-04-25T12:36:12.575Z,99057.91
2023-04-25T12:38:41.525Z,99066.34
2023-04-25T12:41:09.442Z,99062.44
2023-04-25T12:43:37.327Z,99068.47
2023-04-25T12:46:04.840Z,99064.34
2023-04-25T12:48:32.287Z,99070.91
2023-04-25T12:50:59.716Z,99068.63
2023-04-25T12:53:27.136Z,99063.50
2023-04-25T12:58:26.566Z,99085.59
2023-04-25T13:00:54.153Z,99088.44
2023-04-25T13:03:22.986Z,99090.41
2023-04-25T13:05:51.028Z,99081.09
2023-04-25T13:08:18.121Z,99081.94
2023-04-25T13:10:45.312Z,99088.66
2023-04-25T13:13:12.491Z,99080.16
2023-04-25T13:15:40.506Z,99081.84
2023-04-25T13:18:08.307Z,99082.84
2023-04-25T13:20:36.679Z,99085.53
2023-04-25T13:23:04.066Z,99083.69
2023-04-25T13:25:31.558Z,99085.66
2023-04-25T13:27:58.571Z,99089.00
2023-04-25T13:30:25.763Z,99094.69
2023-04-25T13:32:53.413Z,99085.00
2023-04-25T13:35:20.750Z,99090.00
2023-04-25T13:37:47.866Z,99088.34
2023-04-25T13:40:15.639Z,99086.63
2023-04-25T13:42:43.635Z,99089.63
2023-04-25T13:45:11.379Z,99087.47
2023-04-25T13:47:38.477Z,99099.59
2023-04-25T13:50:08.691Z,99097.75
2023-04-25T13:52:35.805Z,99108.59
2023-04-25T13:55:04.828Z,99119.44
2023-04-25T13:57:32.377Z,99122.44
2023-04-25T14:00:00.061Z,99120.09
2023-04-25T14:02:27.846Z,99124.09
2023-04-25T14:04:55.384Z,99117.25
2023-04-25T14:07:22.575Z,99122.72
2023-04-25T14:09:50.262Z,99126.09
2023-04-25T14:12:17.347Z,99133.53
2023-04-25T14:14:44.452Z,99131.22
2023-04-25T14:17:11.898Z,99131.53
2023-04-25T14:19:43.845Z,99128.38
2023-04-25T14:22:11.242Z,99129.53
2023-04-25T14:24:39.173Z,99136.00
2023-04-25T14:27:06.415Z,99131.97
2023-04-25T14:29:33.980Z,99128.28
2023-04-25T14:32:01.208Z,99131.75
2023-04-25T14:34:28.711Z,99129.25
2023-04-25T14:36:56.180Z,99128.56
2023-04-25T14:39:23.358Z,99139.38
2023-04-25T14:41:50.553Z,99146.53
2023-04-25T14:44:17.634Z,99154.38
2023-04-25T14:46:45.621Z,99149.16
2023-04-25T14:49:12.931Z,99142.47
2023-04-25T14:51:40.066Z,99150.94
2023-04-25T14:54:07.519Z,99147.38
2023-04-25T14:56:34.852Z,99146.78
2023-04-25T14:59:02.015Z,99156.25
2023-04-25T15:01:29.196Z,99160.38
2023-04-25T15:03:57.199Z,99152.31
2023-04-25T15:06:27.261Z,99164.75
2023-04-25T15:08:54.626Z,99163.16
2023-04-25T15:11:23.107Z,99164.19
2023-04-25T15:13:50.789Z,99158.44
2023-04-25T15:16:19.142Z,99171.03
2023-04-25T15:18:46.441Z,99167.19
2023-04-25T15:21:13.430Z,99170.28
2023-04-25T15:23:41.199Z,99175.50
2023-04-25T15:26:09.323Z,99177.41
2023-04-25T15:28:37.065Z,99172.84
2023-04-25T15:31:04.136Z,99181.09
2023-04-25T15:33:31.986Z,99177.34
2023-04-25T15:35:59.439Z,99175.97
2023-04-25T15:38:27.091Z,99177.41
2023-04-25T15:40:54.191Z,99174.38
2023-04-25T15:43:21.696Z,99177.47
2023-04-25T15:45:48.803Z,99169.78
2023-04-25T15:48:16.453Z,99174.94
2023-04-25T15:50:44.112Z,99173.03
2023-04-25T15:53:11.212Z,99175.84
2023-04-25T15:55:38.648Z,99173.75
2023-04-25T15:58:06.136Z,99175.34
2023-04-25T16:00:36.192Z,99175.50
2023-04-25T16:03:04.269Z,99182.88
2023-04-25T16:05:32.514Z,99181.50
2023-04-25T16:08:00.712Z,99175.66
2023-04-25T16:10:27.761Z,99176.50
2023-04-25T16:12:55.089Z,99179.28
2023-04-25T16:15:22.608Z,99178.75
2023-04-25T16:17:49.585Z,99191.75
2023-04-25T16:20:17.025Z,99194.84
2023-04-25T16:22:44.527Z,99193.72
2023-04-25T16:25:14.311Z,99196.53
2023-04-25T16:27:41.461Z,99198.91
2023-04-25T16:30:09.932Z,99194.00
2023-04-25T16:32:37.718Z,99185.75
2023-04-25T16:35:05.363Z,99191.47
2023-04-25T16:37:32.609Z,99192.88
2023-04-25T16:39:59.968Z,99203.78
2023-04-25T16:42:27.639Z,99180.88
2023-04-25T16:44:55.379Z,99192.34
2023-04-25T16:47:22.696Z,99183.09
2023-04-25T16:49:50.617Z,99180.84
2023-04-25T16:52:17.630Z,99190.06
2023-04-25T16:54:45.802Z,99186.53
2023-04-25T16:57:13.489Z,99190.00
2023-04-25T16:59:41.195Z,99190.94
2023-04-25T17:02:12.466Z,99193.56
2023-04-25T17:04:40.443Z,99188.34
2023-04-25T17:07:08.456Z,99188.88
2023-04-25T17:09:35.929Z,99186.63
2023-04-25T17:12:03.813Z,99177.34
2023-04-25T17:14:33.186Z,99186.88
2023-04-25T17:17:00.708Z,99177.75
2023-04-25T17:19:28.286Z,99180.81
2023-04-25T17:21:56.164Z,99177.69
2023-04-25T17:24:23.533Z,99183.41
2023-04-25T17:26:50.669Z,99175.28
2023-04-25T17:29:18.764Z,99175.66
2023-04-25T17:31:46.176Z,99179.69
2023-04-25T17:34:17.552Z,99183.06
2023-04-25T17:36:48.397Z,99178.56
2023-04-25T17:39:16.970Z,99176.88
2023-04-25T17:41:44.701Z,99179.69
2023-04-25T17:44:11.712Z,99172.16
2023-04-25T17:46:39.252Z,99162.00
2023-04-25T17:49:06.598Z,99163.13
2023-04-25T17:51:33.800Z,99168.59
2023-04-25T17:54:01.288Z,99163.56
2023-04-25T17:56:28.957Z,99168.72
2023-04-25T17:58:56.283Z,99165.13
2023-04-25T18:01:23.694Z,99168.00
2023-04-25T18:03:51.999Z,99172.03
2023-04-25T18:06:19.497Z,99174.69
2023-04-25T18:08:47.222Z,99168.69
2023-04-25T18:11:14.419Z,99167.31
2023-04-25T18:13:41.664Z,99174.44
2023-04-25T18:16:08.984Z,99176.44
2023-04-25T18:18:36.596Z,99173.91
2023-04-25T18:21:04.943Z,99172.53
2023-04-25T18:23:33.603Z,99183.31
2023-04-25T18:26:01.078Z,99170.78
2023-04-25T18:28:29.132Z,99173.03
2023-04-25T18:30:56.530Z,99170.81
2023-04-25T18:33:23.705Z,99172.94
2023-04-25T18:35:58.241Z,99168.19
2023-04-25T18:41:06.236Z,99163.50
2023-04-25T18:43:44.118Z,99154.00
2023-04-25T18:46:12.016Z,99155.97
2023-04-25T18:48:39.251Z,99148.00
2023-04-25T18:51:06.477Z,99141.84
2023-04-25T18:53:33.894Z,99149.53
2023-04-25T18:56:01.394Z,99141.63
2023-04-25T18:58:28.467Z,99151.22
2023-04-25T19:00:56.064Z,99147.91
2023-04-25T19:03:23.336Z,99139.59
2023-04-25T19:05:50.862Z,99145.53
2023-04-25T19:08:17.979Z,99141.09
2023-04-25T19:10:45.726Z,99138.38
2023-04-25T19:13:13.335Z,99138.44
2023-04-25T19:15:40.400Z,99127.88
2023-04-25T19:18:08.312Z,99124.44
2023-04-25T19:20:36.189Z,99129.47
2023-04-25T19:23:04.959Z,99123.16
2023-04-25T19:25:31.956Z,99121.16
2023-04-25T19:28:00.646Z,99125.66
2023-04-25T19:30:29.000Z,99123.00
2023-04-25T19:32:59.217Z,99103.53
2023-04-25T19:35:30.459Z,99116.84
2023-04-25T19:37:57.832Z,99110.28
2023-04-25T19:40:25.012Z,99108.25
2023-04-25T19:42:52.014Z,99117.16
2023-04-25T19:45:19.417Z,99106.78
2023-04-25T19:47:46.742Z,99116.50
2023-04-25T19:50:14.663Z,99103.97
2023-04-25T19:52:42.301Z,99101.91
2023-04-25T19:55:10.644Z,99080.03
2023-04-25T19:57:38.217Z,99081.16
2023-04-25T20:00:11.588Z,99085.13
2023-04-25T20:02:45.348Z,99091.03
2023-04-25T20:05:14.449Z,99081.16
2023-04-25T20:07:41.619Z,99085.41
2023-04-25T20:10:12.232Z,99083.31
2023-04-25T20:12:42.277Z,99083.94
2023-04-25T20:15:11.125Z,99088.88
2023-04-25T20:17:39.933Z,99084.28
2023-04-25T20:20:09.701Z,99074.13
2023-04-25T20:22:38.467Z,99075.41
2023-04-25T20:25:06.714Z,99073.16
2023-04-25T20:27:33.759Z,99075.44
2023-04-25T20:30:03.050Z,99074.06
2023-04-25T20:32:32.194Z,99068.34
2023-04-25T20:34:59.733Z,99067.81
2023-04-25T20:37:27.224Z,99067.28
2023-04-25T20:39:54.559Z,99074.41
2023-04-25T20:42:23.332Z,99065.06
2023-04-25T20:44:50.445Z,99062.00
2023-04-25T20:47:17.517Z,99055.00
2023-04-25T20:49:44.801Z,99056.00
2023-04-25T20:52:12.197Z,99058.50
2023-04-25T20:54:39.253Z,99041.91
2023-04-25T20:57:06.577Z,99045.22
2023-04-25T20:59:33.659Z,99041.59
2023-04-25T21:02:01.293Z,99039.66
2023-04-25T21:04:28.881Z,99035.03
2023-04-25T21:06:56.306Z,99027.75
2023-04-25T21:09:23.687Z,99023.13
2023-04-25T21:11:51.636Z,99026.31
2023-04-25T21:14:18.934Z,99011.22
2023-04-25T21:16:45.986Z,99021.97
2023-04-25T21:19:13.430Z,99022.47
2023-04-25T21:21:40.895Z,99026.50
2023-04-25T21:24:09.657Z,99028.84
2023-04-25T21:26:36.948Z,99020.91
2023-04-25T21:29:04.392Z,99029.41
2023-04-25T21:31:31.786Z,99027.59
2023-04-25T21:33:59.096Z,99022.13
2023-04-25T21:36:27.495Z,99022.81
2023-04-25T21:38:55.289Z,99003.25
2023-04-25T21:41:22.579Z,99017.34
2023-04-25T21:43:50.253Z,99008.25
2023-04-25T21:46:23.366Z,98997.78
2023-04-25T21:48:51.699Z,98994.97
2023-04-25T21:51:19.541Z,98997.63
2023-04-25T21:53:46.864Z,98999.44
2023-04-25T21:56:14.072Z,98991.31
2023-04-25T21:58:41.476Z,98978.19
2023-04-25T22:01:09.568Z,98982.53
2023-04-25T22:03:37.031Z,98975.53
2023-04-25T22:06:04.667Z,98964.25
2023-04-25T22:08:31.668Z,98965.06
2023-04-25T22:11:00.086Z,98961.44
2023-04-25T22:13:28.651Z,98961.28
2023-04-25T22:15:56.087Z,98959.13
2023-04-25T22:18:23.568Z,98958.72
2023-04-25T22:20:50.916Z,98951.94
2023-04-25T22:23:18.662Z,98943.34
2023-04-25T22:25:46.020Z,98943.44
2023-04-25T22:28:14.697Z,98945.78
2023-04-25T22:30:42.074Z,98957.47
2023-04-25T22:33:09.792Z,98954.19
2023-04-25T22:35:37.219Z,98949.78
2023-04-25T22:38:04.619Z,98944.66
2023-04-25T22:40:32.050Z,98942.69
2023-04-25T22:42:59.657Z,98932.38
2023-04-25T22:45:27.116Z,98953.53
2023-04-25T22:47:54.262Z,98948.59
2023-04-25T22:50:21.748Z,98952.28
2023-04-25T22:52:48.749Z,98951.28
2023-04-25T22:55:16.088Z,98946.19
2023-04-25T22:57:43.261Z,98942.88
2023-04-25T23:00:19.620Z,98937.78
2023-04-25T23:02:47.575Z,98942.97
2023-04-25T23:05:15.019Z,98939.31
2023-04-25T23:07:43.379Z,98946.97
2023-04-25T23:10:10.725Z,98936.03
2023-04-25T23:12:38.002Z,98936.56
2023-04-25T23:15:05.784Z,98936.63
2023-04-25T23:17:33.013Z,98935.19
2023-04-25T23:20:00.540Z,98936.22
2023-04-25T23:22:28.225Z,98935.91
2023-04-25T23:24:55.711Z,98930.31
2023-04-25T23:27:22.993Z,98922.13
2023-04-25T23:29:56.705Z,98922.31
2023-04-25T23:32:25.811Z,98919.66
2023-04-25T23:34:53.306Z,98913.63
2023-04-25T23:37:20.362Z,98921.94
2023-04-25T23:39:49.672Z,98922.09
2023-04-25T23:42:17.604Z,98925.59
2023-04-25T23:44:45.243Z,98924.28
2023-04-25T23:47:14.250Z,98923.09
2023-04-25T23:49:41.846Z,98923.09
2023-04-25T23:52:09.559Z,98927.25
2023-04-25T23:54:36.957Z,98924.59
2023-04-25T23:57:04.410Z,98908.59
2023-04-25T23:59:32.134Z,98909.41
